Time;durP1;ratioP1;P1;durP2;ratioP2;P2;SDS_P1;SDS_P2;PMS_P1;PMS_P2;Temp;Humidity;BMP_temperature;BMP_pressure;BME280_temperature;BME280_humidity;BME280_pressure;Samples;Min_cycle;Max_cycle;Signal;HPM_P1;HPM_P2
2023/04/24 00:00:47;;;;;;;13.93;8.95;;;;;;;12.27;45.05;99456.41;1810961;79;25542;-50
2023/04/24 00:03:14;;;;;;;11.45;8.90;;;;;;;12.23;45.16;99448.73;1811146;76;25570;-51
2023/04/24 00:05:41;;;;;;;14.03;9.10;;;;;;;12.17;44.91;99448.73;1811133;79;27269;-50
2023/04/24 00:08:08;;;;;;;13.55;9.05;;;;;;;12.12;45.10;99447.61;1810928;79;25425;-51
2023/04/24 00:10:34;;;;;;;14.45;10.00;;;;;;;11.95;45.44;99434.53;1811033;79;30428;-50
2023/04/24 00:13:01;;;;;;;13.35;9.75;;;;;;;11.95;45.44;99434.53;1810986;79;25376;-50
2023/04/24 00:15:27;;;;;;;15.30;10.43;;;;;;;11.87;45.63;99435.97;1811010;79;25504;-51
2023/04/24 00:17:53;;;;;;;13.60;9.38;;;;;;;11.79;46.22;99432.22;1811007;79;27977;-50
2023/04/24 00:20:21;;;;;;;16.52;10.65;;;;;;;11.71;46.46;99428.51;1810900;79;25760;-52
2023/04/24 00:22:47;;;;;;;15.03;9.48;;;;;;;11.67;46.42;99431.64;1811004;77;25612;-50
2023/04/24 00:25:13;;;;;;;12.90;9.48;;;;;;;11.62;46.46;99427.80;1810969;79;25531;-54
2023/04/24 00:27:39;;;;;;;15.32;9.85;;;;;;;11.56;46.53;99428.59;1811066;79;25357;-54
2023/04/24 00:30:08;;;;;;;16.55;10.63;;;;;;;11.49;47.22;99422.95;1811027;78;27363;-51
2023/04/24 00:32:34;;;;;;;15.28;9.60;;;;;;;11.46;47.34;99416.84;1810940;79;25390;-50
2023/04/24 00:35:04;;;;;;;14.98;9.68;;;;;;;11.43;47.06;99417.52;1818897;77;25598;-53
2023/04/24 00:37:30;;;;;;;14.58;10.00;;;;;;;11.36;47.62;99414.56;1842029;77;25466;-53
2023/04/24 00:39:57;;;;;;;17.40;10.88;;;;;;;11.31;47.63;99416.92;1841058;77;25345;-54
2023/04/24 00:42:24;;;;;;;14.98;9.75;;;;;;;11.27;47.62;99419.27;1829923;77;28021;-51
2023/04/24 00:44:52;;;;;;;13.60;10.23;;;;;;;11.22;47.72;99418.94;1842030;77;25467;-50
2023/04/24 00:47:21;;;;;;;14.10;10.00;;;;;;;11.17;47.71;99415.88;1842284;77;25459;-53
2023/04/24 00:49:48;;;;;;;15.95;10.93;;;;;;;11.10;48.38;99410.22;1842172;77;27429;-50
2023/04/24 00:52:17;;;;;;;16.90;11.08;;;;;;;11.02;48.20;99417.28;1813074;77;25601;-50
2023/04/24 00:54:42;;;;;;;13.65;9.23;;;;;;;10.97;48.86;99413.43;1842654;77;27327;-50
2023/04/24 00:57:08;;;;;;;14.40;10.15;;;;;;;10.95;48.60;99414.91;1842068;77;25513;-50
2023/04/24 00:59:35;;;;;;;14.83;10.00;;;;;;;10.91;49.08;99411.27;1842202;77;25416;-53
2023/04/24 01:02:02;;;;;;;15.95;9.98;;;;;;;10.90;49.02;99413.76;1821069;77;25434;-51
2023/04/24 01:04:29;;;;;;;17.17;10.13;;;;;;;10.88;49.02;99412.73;1842204;77;25440;-51
2023/04/24 01:06:57;;;;;;;15.78;10.15;;;;;;;10.84;48.97;99415.31;1842243;77;27369;-54
2023/04/24 01:09:25;;;;;;;15.32;10.10;;;;;;;10.77;49.71;99412.90;1842135;77;25525;-50
2023/04/24 01:11:51;;;;;;;14.35;10.20;;;;;;;10.72;50.07;99409.05;1842203;77;25631;-50
2023/04/24 01:14:18;;;;;;;16.42;10.70;;;;;;;10.67;50.33;99407.33;1842163;77;27449;-50
2023/04/24 01:16:44;;;;;;;16.70;10.48;;;;;;;10.67;50.33;99411.38;1842217;77;25520;-52
2023/04/24 01:19:12;;;;;;;14.87;10.35;;;;;;;10.68;50.67;99410.84;1842201;77;28257;-51
2023/04/24 01:21:40;;;;;;;15.43;10.70;;;;;;;10.69;50.43;99415.89;1842123;77;25547;-51
2023/04/24 01:24:07;;;;;;;16.67;10.30;;;;;;;10.70;50.46;99412.08;1842228;77;25381;-53
2023/04/24 01:26:35;;;;;;;14.07;10.18;;;;;;;10.73;50.82;99414.70;1842653;77;25528;-51
2023/04/24 01:29:02;;;;;;;16.23;10.18;;;;;;;10.74;50.79;99420.31;1842231;77;25533;-50
2023/04/24 01:31:30;;;;;;;15.78;10.63;;;;;;;10.74;50.54;99410.28;1842194;77;27955;-50
2023/04/24 01:33:58;;;;;;;15.50;10.48;;;;;;;10.74;50.24;99403.52;1842113;77;25612;-51
2023/04/24 01:36:27;;;;;;;18.35;11.05;;;;;;;10.75;50.89;99401.06;1840309;77;25398;-53
2023/04/24 01:38:53;;;;;;;15.30;10.68;;;;;;;10.75;50.72;99401.06;1839631;77;25536;-55
2023/04/24 01:41:20;;;;;;;19.55;10.43;;;;;;;10.74;51.30;99397.33;1839588;77;25601;-54
2023/04/24 01:43:49;;;;;;;12.28;10.28;;;;;;;10.73;50.72;99407.94;1839539;77;27854;-51
2023/04/24 01:46:16;;;;;;;16.62;9.93;;;;;;;10.71;51.04;99394.74;1839453;77;25364;-51
2023/04/24 01:48:42;;;;;;;15.43;9.83;;;;;;;10.71;50.89;99407.45;1832596;78;25532;-50
2023/04/24 01:51:08;;;;;;;15.50;10.70;;;;;;;10.71;51.04;99410.16;1831295;78;25393;-51
2023/04/24 01:53:34;;;;;;;17.52;10.80;;;;;;;10.73;50.98;99405.23;1831328;78;25580;-51
2023/04/24 01:56:02;;;;;;;17.27;10.95;;;;;;;10.71;51.21;99396.09;1831358;78;27298;-50
2023/04/24 01:58:29;;;;;;;14.50;11.03;;;;;;;10.69;51.34;99404.30;1831202;78;25512;-52
2023/04/24 02:00:58;;;;;;;14.98;10.13;;;;;;;10.67;51.32;99399.21;1833314;78;25567;-50
2023/04/24 02:03:26;;;;;;;18.95;11.50;;;;;;;10.68;51.26;99409.48;1839582;78;25496;-51
2023/04/24 02:05:52;;;;;;;14.50;10.55;;;;;;;10.69;51.26;99393.48;1839571;78;25366;-51
2023/04/24 02:08:19;;;;;;;14.05;10.90;;;;;;;10.67;51.31;99385.69;1839506;78;27404;-51
2023/04/24 02:10:45;;;;;;;20.10;11.18;;;;;;;10.61;51.44;99387.81;1839408;78;25589;-50
2023/04/24 02:13:11;;;;;;;13.40;10.05;;;;;;;10.57;51.73;99392.31;1839595;78;25411;-50
2023/04/24 02:15:37;;;;;;;15.08;10.70;;;;;;;10.57;51.33;99393.66;1839539;78;25562;-51
2023/04/24 02:18:03;;;;;;;16.32;11.25;;;;;;;10.56;51.79;99392.64;1839586;77;25632;-54
2023/04/24 02:20:29;;;;;;;17.12;10.60;;;;;;;10.62;51.72;99402.93;1839488;77;27359;-51
2023/04/24 02:22:55;;;;;;;15.48;11.38;;;;;;;10.52;51.58;99380.89;1839542;78;25363;-51
2023/04/24 02:25:22;;;;;;;17.52;10.75;;;;;;;10.47;51.95;99377.81;1839446;78;25427;-50
2023/04/24 02:27:49;;;;;;;16.67;10.23;;;;;;;10.41;51.92;99378.58;1839455;78;25365;-51
2023/04/24 02:30:15;;;;;;;14.65;11.75;;;;;;;10.36;52.20;99370.67;1839523;78;25614;-51
2023/04/24 02:32:41;;;;;;;15.93;11.03;;;;;;;10.31;52.16;99376.24;1839490;78;27306;-54
2023/04/24 02:35:09;;;;;;;14.65;10.25;;;;;;;10.29;52.06;99376.57;1839241;77;25592;-55
2023/04/24 02:37:35;;;;;;;16.82;10.58;;;;;;;10.27;52.27;99372.62;1833639;78;25495;-54
2023/04/24 02:40:02;;;;;;;16.75;9.88;;;;;;;10.23;52.58;99364.39;1833643;78;26248;-51
2023/04/24 02:42:28;;;;;;;16.20;10.05;;;;;;;10.19;52.84;99366.72;1833661;78;25427;-50
2023/04/24 02:44:55;;;;;;;14.85;10.25;;;;;;;10.10;52.72;99358.11;1833599;78;27289;-51
2023/04/24 02:47:21;;;;;;;14.23;9.83;;;;;;;10.03;52.88;99359.19;1833476;78;25365;-50
2023/04/24 02:49:47;;;;;;;14.65;10.60;;;;;;;9.96;53.39;99354.88;1833585;78;25534;-50
2023/04/24 02:52:14;;;;;;;17.42;10.98;;;;;;;9.90;53.53;99352.91;1833536;78;25408;-52
2023/04/24 02:54:41;;;;;;;17.92;11.63;;;;;;;9.86;53.74;99346.58;1833594;78;25385;-49
2023/04/24 02:57:07;;;;;;;14.63;10.80;;;;;;;9.86;53.81;99351.20;1833586;78;27360;-54
2023/04/24 02:59:33;;;;;;;15.63;11.33;;;;;;;9.84;54.21;99352.87;1833504;78;25526;-49
2023/04/24 03:02:00;;;;;;;14.28;10.88;;;;;;;9.83;54.11;99346.45;1833543;78;25530;-49
2023/04/24 03:04:27;;;;;;;14.18;10.50;;;;;;;9.79;54.29;99345.50;1833575;78;25423;-50
2023/04/24 03:06:54;;;;;;;15.08;10.85;;;;;;;9.78;54.20;99342.59;1833614;78;25564;-49
2023/04/24 03:09:24;;;;;;;14.83;11.90;;;;;;;9.76;55.48;99352.93;1833526;78;28034;-50
2023/04/24 03:11:50;;;;;;;19.07;12.13;;;;;;;9.72;55.00;99348.71;1833743;78;25570;-50
2023/04/24 03:14:16;;;;;;;15.35;11.40;;;;;;;9.71;54.99;99345.23;1810375;78;25550;-50
2023/04/24 03:16:43;;;;;;;16.02;11.48;;;;;;;9.71;55.18;99348.50;1833549;78;25581;-50
2023/04/24 03:19:09;;;;;;;16.55;11.75;;;;;;;9.71;55.08;99347.93;1831407;78;25524;-50
2023/04/24 03:21:35;;;;;;;18.35;10.90;;;;;;;9.71;55.28;99354.68;1833550;78;27318;-50
2023/04/24 03:24:02;;;;;;;20.97;11.12;;;;;;;9.72;55.05;99356.27;1833446;78;25593;-52
2023/04/24 03:26:28;;;;;;;16.50;11.22;;;;;;;9.75;55.14;99351.33;1833577;78;25621;-52
2023/04/24 03:28:54;;;;;;;14.58;11.18;;;;;;;9.76;55.16;99355.63;1833433;78;25425;-51
2023/04/24 03:31:21;;;;;;;19.37;10.43;;;;;;;9.76;55.23;99352.36;1833566;78;25353;-51
2023/04/24 03:33:47;;;;;;;16.85;11.53;;;;;;;9.77;55.58;99353.14;1833556;78;27336;-51
2023/04/24 03:36:13;;;;;;;14.87;11.05;;;;;;;9.75;54.96;99356.73;1835216;78;25530;-53
2023/04/24 03:38:39;;;;;;;17.62;11.43;;;;;;;9.75;55.05;99360.78;1839384;78;25359;-51
2023/04/24 03:41:06;;;;;;;14.45;11.30;;;;;;;9.75;55.39;99362.13;1839436;78;25560;-52
2023/04/24 03:43:34;;;;;;;15.13;10.72;;;;;;;9.72;55.43;99358.97;1839555;77;25378;-50
2023/04/24 03:46:00;;;;;;;17.25;10.93;;;;;;;9.73;55.09;99358.41;1839450;78;27376;-50
2023/04/24 03:48:27;;;;;;;19.30;11.85;;;;;;;9.72;55.65;99355.46;1813589;77;25597;-51
2023/04/24 03:50:53;;;;;;;17.37;12.47;;;;;;;9.71;55.68;99357.95;1841236;77;25585;-53
2023/04/24 03:53:19;;;;;;;14.43;10.78;;;;;;;9.69;55.93;99359.63;1839416;77;25534;-54
2023/04/24 03:55:46;;;;;;;16.57;11.30;;;;;;;9.65;55.61;99356.00;1839453;77;25557;-54
2023/04/24 03:58:14;;;;;;;15.90;11.43;;;;;;;9.64;56.18;99360.37;1839443;77;27294;-53
2023/04/24 04:00:40;;;;;;;17.67;11.85;;;;;;;9.60;56.71;99358.07;1839466;78;25590;-53
2023/04/24 04:03:07;;;;;;;14.65;11.20;;;;;;;9.57;57.01;99358.72;1839413;78;25395;-54
2023/04/24 04:05:33;;;;;;;15.90;11.60;;;;;;;9.56;57.00;99355.23;1839404;78;25412;-54
2023/04/24 04:07:59;;;;;;;14.83;11.05;;;;;;;9.56;57.07;99361.20;1839502;78;25565;-51
2023/04/24 04:10:25;;;;;;;18.02;11.22;;;;;;;9.56;57.16;99365.25;1833906;78;27251;-51
2023/04/24 04:12:51;;;;;;;14.23;10.75;;;;;;;9.57;57.36;99366.81;1838000;78;25365;-54
2023/04/24 04:15:18;;;;;;;17.73;10.90;;;;;;;9.58;57.43;99367.06;1839447;78;25621;-54
2023/04/24 04:17:45;;;;;;;14.83;11.30;;;;;;;9.59;57.36;99368.66;1839373;77;25375;-53
2023/04/24 04:20:14;;;;;;;14.50;10.43;;;;;;;9.59;57.64;99365.95;1839555;78;25407;-52
2023/04/24 04:22:41;;;;;;;17.95;11.08;;;;;;;9.59;57.64;99373.48;1818799;78;27416;-50
2023/04/24 04:25:10;;;;;;;20.92;10.88;;;;;;;9.60;57.81;99369.66;1839508;77;25620;-50
2023/04/24 04:27:36;;;;;;;15.35;11.95;;;;;;;9.61;57.97;99379.34;1839699;77;25392;-50
2023/04/24 04:30:05;;;;;;;15.58;11.40;;;;;;;9.61;58.20;99374.52;1839521;78;27536;-50
2023/04/24 04:32:33;;;;;;;16.60;12.18;;;;;;;9.61;58.14;99373.95;1839775;78;25534;-52
2023/04/24 04:35:02;;;;;;;16.12;11.63;;;;;;;9.64;58.62;99373.30;1839595;77;27281;-52
2023/04/24 04:37:31;;;;;;;17.32;11.38;;;;;;;9.64;58.61;99378.70;1839429;78;25811;-51
2023/04/24 04:40:00;;;;;;;15.10;11.45;;;;;;;9.67;58.33;99371.31;1839601;77;25608;-51
2023/04/24 04:42:28;;;;;;;13.60;10.90;;;;;;;9.71;58.68;99374.94;1839461;77;25395;-51
2023/04/24 04:44:55;;;;;;;16.10;11.18;;;;;;;9.74;59.04;99373.50;1839639;77;25566;-50
2023/04/24 04:47:23;;;;;;;20.50;12.43;;;;;;;9.73;58.81;99361.89;1839521;78;29441;-50
2023/04/24 04:49:55;;;;;;;16.15;11.00;;;;;;;9.79;58.86;99367.11;1839644;78;25360;-55
2023/04/24 04:52:19;;;;;;;17.02;11.25;;;;;;;9.83;58.94;99367.48;1838192;77;35268;-50
2023/04/24 04:54:46;;;;;;;13.00;10.25;;;;;;;9.87;58.94;99373.02;1839626;77;25560;-51
2023/04/24 04:57:13;;;;;;;14.38;10.53;;;;;;;9.91;59.13;99378.81;1839678;78;25454;-55
2023/04/24 04:59:40;;;;;;;21.35;11.73;;;;;;;9.94;59.38;99377.91;1839578;78;28019;-55
2023/04/24 05:02:08;;;;;;;17.90;12.60;;;;;;;9.97;59.54;99379.41;1839466;78;25604;-58
2023/04/24 05:04:34;;;;;;;16.90;11.63;;;;;;;9.99;59.91;99364.22;1839582;78;25395;-59
2023/04/24 05:07:01;;;;;;;18.25;11.53;;;;;;;10.07;59.70;99372.27;1839494;78;25456;-60
2023/04/24 05:09:29;;;;;;;19.30;11.65;;;;;;;10.13;59.68;99372.89;1839568;78;25521;-59
2023/04/24 05:11:56;;;;;;;15.05;11.55;;;;;;;10.17;59.56;99364.34;1839576;78;27309;-59
2023/04/24 05:14:22;;;;;;;16.57;11.73;;;;;;;10.24;59.57;99365.17;1839581;77;25553;-56
2023/04/24 05:16:49;;;;;;;16.30;11.55;;;;;;;10.29;59.78;99369.03;1839547;77;25380;-60
2023/04/24 05:19:15;;;;;;;16.70;11.73;;;;;;;10.32;59.58;99360.30;1839492;78;25534;-60
2023/04/24 05:21:42;;;;;;;18.07;11.35;;;;;;;10.38;59.54;99358.96;1839623;77;25464;-60
2023/04/24 05:24:29;;;;;;;14.87;11.25;;;;;;;10.46;59.89;99368.14;1781445;80;25607;-60
2023/04/24 05:26:58;;;;;;;17.37;11.48;;;;;;;10.54;59.81;99361.06;1781623;80;25615;-59
2023/04/24 05:29:26;;;;;;;15.80;11.03;;;;;;;10.67;59.78;99362.70;1781833;80;25474;-59
2023/04/24 05:31:52;;;;;;;19.50;10.95;;;;;;;10.80;59.79;99360.28;1765153;79;25532;-59
2023/04/24 05:34:18;;;;;;;12.75;10.53;;;;;;;10.95;59.73;99360.79;1775992;80;25509;-51
2023/04/24 05:36:45;;;;;;;18.82;12.45;;;;;;;11.11;59.83;99360.36;1781541;79;29563;-58
2023/04/24 05:39:11;;;;;;;13.83;10.58;;;;;;;11.26;59.31;99349.45;1781557;79;27206;-58
2023/04/24 05:41:37;;;;;;;14.53;11.85;;;;;;;11.45;59.23;99358.39;1781660;80;25581;-57
2023/04/24 05:44:04;;;;;;;14.95;10.75;;;;;;;11.62;58.99;99349.83;1781643;80;25612;-58
2023/04/24 05:46:31;;;;;;;16.90;11.48;;;;;;;11.78;58.49;99354.23;1781701;80;25633;-58
2023/04/24 05:48:57;;;;;;;13.95;10.50;;;;;;;11.93;58.25;99351.41;1772174;80;27892;-58
2023/04/24 05:51:25;;;;;;;14.28;10.10;;;;;;;12.13;57.92;99359.74;1798799;79;25410;-59
2023/04/24 05:53:52;;;;;;;21.17;10.58;;;;;;;12.27;57.53;99356.08;1808978;79;25390;-58
2023/04/24 05:56:19;;;;;;;13.50;10.30;;;;;;;12.43;57.20;99356.72;1808954;79;25451;-58
2023/04/24 05:58:46;;;;;;;17.62;11.57;;;;;;;12.61;56.83;99355.30;1808901;79;25460;-58
2023/04/24 06:01:18;;;;;;;15.20;10.98;;;;;;;12.80;56.37;99354.66;1808471;79;27453;-57
2023/04/24 06:03:42;;;;;;;12.05;9.63;;;;;;;13.01;56.07;99352.31;1807133;79;25445;-57
2023/04/24 06:06:09;;;;;;;17.57;10.82;;;;;;;13.23;55.81;99345.50;1770493;81;25392;-57
2023/04/24 06:08:35;;;;;;;16.32;10.40;;;;;;;13.49;55.56;99353.73;1770467;81;25790;-59
2023/04/24 06:11:02;;;;;;;15.68;10.20;;;;;;;13.76;54.88;99356.89;1770504;80;25356;-59
2023/04/24 06:13:28;;;;;;;16.37;9.98;;;;;;;13.92;54.01;99356.08;1770501;81;27301;-58
2023/04/24 06:15:54;;;;;;;15.25;10.05;;;;;;;14.07;53.69;99353.89;1770396;81;25465;-58
2023/04/24 06:18:21;;;;;;;15.38;10.60;;;;;;;14.25;53.27;99354.29;1770459;81;25501;-58
2023/04/24 06:20:47;;;;;;;16.17;10.35;;;;;;;14.36;52.42;99351.78;1770467;81;25945;-59
2023/04/24 06:23:13;;;;;;;15.53;9.83;;;;;;;14.50;52.62;99352.06;1756671;80;25408;-59
2023/04/24 06:25:39;;;;;;;15.03;9.78;;;;;;;14.77;52.64;99348.15;1737125;82;27993;-59
2023/04/24 06:28:06;;;;;;;13.48;10.43;;;;;;;14.99;51.74;99343.11;1736974;82;25901;-59
2023/04/24 06:30:32;;;;;;;16.23;10.38;;;;;;;15.21;51.71;99334.16;1736864;82;25393;-60
2023/04/24 06:32:58;;;;;;;16.97;10.28;;;;;;;15.47;51.18;99331.27;1737996;82;25459;-60
2023/04/24 06:35:24;;;;;;;17.62;9.15;;;;;;;15.67;50.66;99331.37;1737899;82;25461;-57
2023/04/24 06:37:51;;;;;;;17.82;9.98;;;;;;;15.87;50.53;99321.78;1736603;82;27361;-59
2023/04/24 06:40:21;;;;;;;15.70;9.80;;;;;;;16.13;49.65;99327.77;1737733;82;25497;-58
2023/04/24 06:42:47;;;;;;;13.38;9.45;;;;;;;16.31;48.97;99325.28;1738083;82;25464;-58
2023/04/24 06:45:13;;;;;;;18.10;10.70;;;;;;;16.51;48.93;99316.92;1736310;82;25484;-59
2023/04/24 06:47:39;;;;;;;17.62;10.13;;;;;;;16.83;48.40;99317.86;1738119;82;25397;-58
2023/04/24 06:50:06;;;;;;;23.05;10.98;;;;;;;17.08;47.87;99324.38;1737852;82;27395;-58
2023/04/24 06:52:33;;;;;;;15.93;10.32;;;;;;;17.36;47.43;99318.36;1737826;82;25615;-58
2023/04/24 06:55:04;;;;;;;19.67;9.68;;;;;;;17.64;47.15;99320.31;1737721;82;25397;-58
2023/04/24 06:57:31;;;;;;;17.00;9.93;;;;;;;17.92;46.29;99325.22;1737498;82;25979;-57
2023/04/24 06:59:57;;;;;;;14.60;10.03;;;;;;;18.08;45.66;99323.54;1737697;82;25438;-58
2023/04/24 07:02:25;;;;;;;20.80;10.38;;;;;;;18.16;45.40;99321.05;1738049;82;27335;-58
2023/04/24 07:04:52;;;;;;;16.05;9.60;;;;;;;18.27;45.21;99327.36;1737639;82;25533;-58
2023/04/24 07:07:19;;;;;;;15.98;9.98;;;;;;;18.31;45.20;99325.23;1737771;82;25432;-58
2023/04/24 07:09:45;;;;;;;17.35;10.13;;;;;;;18.43;44.93;99321.55;1737847;82;25406;-59
2023/04/24 07:12:12;;;;;;;12.47;9.95;;;;;;;18.50;45.02;99318.05;1738099;82;25411;-58
2023/04/24 07:14:39;;;;;;;18.35;9.98;;;;;;;18.76;44.79;99327.12;1737507;82;27337;-60
2023/04/24 07:17:06;;;;;;;14.80;9.98;;;;;;;18.89;43.72;99326.22;1738032;82;25466;-60
2023/04/24 07:19:37;;;;;;;19.92;10.25;;;;;;;19.02;43.87;99322.71;1738108;82;25433;-60
2023/04/24 07:22:04;;;;;;;15.15;9.55;;;;;;;19.29;44.00;99318.80;1737082;82;25438;-60
2023/04/24 07:24:32;;;;;;;14.90;10.18;;;;;;;19.51;43.38;99320.38;1765872;81;25349;-59
2023/04/24 07:27:00;;;;;;;17.55;9.48;;;;;;;19.87;43.69;99310.75;1773077;81;27390;-60
2023/04/24 07:29:27;;;;;;;12.87;8.97;;;;;;;20.32;43.57;99305.48;1773086;80;25409;-59
2023/04/24 07:31:53;;;;;;;15.38;9.15;;;;;;;20.92;43.28;99306.19;1772407;81;25444;-57
2023/04/24 07:34:20;;;;;;;13.25;9.70;;;;;;;21.53;42.56;99312.00;1772925;80;25389;-60
2023/04/24 07:36:47;;;;;;;15.00;9.10;;;;;;;22.12;41.61;99301.98;1772788;81;25396;-59
2023/04/24 07:39:13;;;;;;;15.00;9.30;;;;;;;22.60;40.54;99307.87;1772877;80;27369;-60
2023/04/24 07:41:39;;;;;;;16.67;8.73;;;;;;;23.07;40.06;99306.64;1770716;80;25505;-59
2023/04/24 07:44:05;;;;;;;16.45;11.78;;;;;;;23.43;38.18;99308.04;1772485;81;25409;-60
2023/04/24 07:46:32;;;;;;;12.50;8.20;;;;;;;23.63;37.27;99303.92;1772854;80;25969;-59
2023/04/24 07:49:01;;;;;;;12.15;7.87;;;;;;;23.76;35.86;99305.47;1772909;80;25369;-60
2023/04/24 07:51:27;;;;;;;10.23;7.55;;;;;;;23.83;35.53;99294.32;1773252;80;27343;-59
2023/04/24 07:53:56;;;;;;;14.93;8.23;;;;;;;24.15;36.04;99295.07;1773369;80;25526;-59
2023/04/24 07:56:22;;;;;;;13.85;8.35;;;;;;;24.52;34.72;99295.09;1773915;80;25433;-60
2023/04/24 07:58:49;;;;;;;15.72;7.90;;;;;;;24.63;33.93;99295.67;1811944;78;25434;-59
2023/04/24 08:01:15;;;;;;;13.88;8.45;;;;;;;24.60;33.49;99285.46;1772870;81;25439;-60
2023/04/24 08:03:41;;;;;;;14.13;7.80;;;;;;;24.51;32.76;99281.88;1812486;78;27383;-59
2023/04/24 08:06:07;;;;;;;15.75;8.13;;;;;;;24.56;33.21;99289.69;1772772;80;25568;-60
2023/04/24 08:08:34;;;;;;;17.67;8.18;;;;;;;24.61;32.68;99278.73;1811835;78;25366;-60
2023/04/24 08:11:00;;;;;;;13.25;8.78;;;;;;;24.95;33.97;99277.56;1772827;81;25436;-60
2023/04/24 08:13:26;;;;;;;12.53;7.80;;;;;;;25.34;33.38;99284.16;1772196;81;25482;-60
2023/04/24 08:15:53;;;;;;;11.38;7.90;;;;;;;25.79;32.98;99279.81;1811700;78;27323;-61
2023/04/24 08:18:19;;;;;;;11.25;7.87;;;;;;;26.11;32.45;99280.94;1772791;81;25356;-61
2023/04/24 08:20:46;;;;;;;13.95;7.85;;;;;;;26.40;30.93;99279.48;1778737;80;25462;-61
2023/04/24 08:23:12;;;;;;;12.18;7.60;;;;;;;26.44;30.81;99280.94;1773039;80;25354;-60
2023/04/24 08:25:38;;;;;;;10.80;7.62;;;;;;;26.46;30.64;99279.11;1811694;78;25362;-60
2023/04/24 08:28:06;;;;;;;11.18;7.65;;;;;;;26.29;30.18;99281.20;1811774;78;27887;-60
2023/04/24 08:30:33;;;;;;;11.38;7.90;;;;;;;26.31;30.39;99278.77;1772763;81;25588;-60
2023/04/24 08:32:59;;;;;;;12.63;7.67;;;;;;;26.54;30.11;99287.98;1811738;78;25385;-61
2023/04/24 08:35:25;;;;;;;12.80;7.70;;;;;;;26.66;30.32;99273.37;1811691;79;25989;-60
2023/04/24 08:37:53;;;;;;;9.98;7.53;;;;;;;27.13;30.51;99278.20;1735677;82;25396;-61
2023/04/24 08:40:25;;;;;;;14.58;7.42;;;;;;;27.57;30.28;99275.56;1735626;82;27857;-61
2023/04/24 08:42:55;;;;;;;12.07;7.25;;;;;;;28.06;29.68;99277.03;1750567;81;25617;-62
2023/04/24 08:45:22;;;;;;;13.10;6.97;;;;;;;28.63;29.17;99271.31;1811786;78;25386;-62
2023/04/24 08:51:01;;;;;;;11.90;6.50;;;;;;;28.56;27.25;99267.42;1821294;77;25470;-59
2023/04/24 08:53:33;;;;;;;9.13;7.37;;;;;;;28.69;27.25;99263.93;1782626;80;25573;-60
2023/04/24 08:56:03;;;;;;;9.65;7.72;;;;;;;28.67;27.05;99260.04;1782638;80;27564;-61
2023/04/24 08:58:31;;;;;;;8.68;6.12;;;;;;;29.02;27.48;99253.65;1782551;80;25529;-61
2023/04/24 09:01:00;;;;;;;11.10;7.30;;;;;;;29.38;26.80;99256.97;1782648;80;25404;-62
2023/04/24 09:03:29;;;;;;;11.50;6.83;;;;;;;29.29;25.32;99259.14;1782670;79;25574;-61
2023/04/24 09:05:59;;;;;;;11.40;6.72;;;;;;;29.10;25.79;99249.17;1782650;79;25550;-62
2023/04/24 09:08:28;;;;;;;11.28;6.80;;;;;;;29.15;26.46;99249.95;1782577;80;27647;-57
2023/04/24 09:10:54;;;;;;;8.75;7.50;;;;;;;29.37;25.74;99252.03;1782456;79;25919;-49
2023/04/24 09:13:24;;;;;;;9.68;6.22;;;;;;;29.41;25.97;99253.27;1782148;79;25631;-48
2023/04/24 09:15:52;;;;;;;15.63;7.35;;;;;;;29.74;26.14;99254.02;1781004;79;25709;-49
2023/04/24 09:18:21;;;;;;;10.35;6.55;;;;;;;30.12;25.35;99249.95;1782141;79;25634;-46
2023/04/24 09:21:06;;;;;;;8.35;6.45;;;;;;;29.86;24.69;99257.28;1782186;79;28246;-46
2023/04/24 09:23:35;;;;;;;9.23;6.72;;;;;;;29.82;24.85;99249.71;1781964;80;27411;-47
2023/04/24 09:26:04;;;;;;;11.03;7.08;;;;;;;29.70;24.02;99251.40;1782068;79;25634;-46
2023/04/24 09:28:36;;;;;;;7.60;6.80;;;;;;;29.23;24.49;99249.24;1782371;80;25442;-46
2023/04/24 09:31:18;;;;;;;10.70;7.70;;;;;;;29.01;25.06;99236.02;1782524;79;25440;-46
2023/04/24 09:33:58;;;;;;;9.80;7.60;;;;;;;29.16;25.66;99241.77;1782553;79;27540;-46
2023/04/24 09:36:42;;;;;;;9.00;7.80;;;;;;;29.67;25.42;99238.39;1782390;79;27326;-45
2023/04/24 09:39:15;;;;;;;16.85;8.23;;;;;;;29.58;24.94;99240.57;1782470;80;25539;-46
2023/04/24 09:41:57;;;;;;;13.00;7.65;;;;;;;29.42;25.08;99237.48;1782441;80;26095;-51
2023/04/24 09:44:29;;;;;;;11.33;7.03;;;;;;;29.36;25.21;99235.78;1782536;79;25390;-50
2023/04/24 09:46:59;;;;;;;10.63;7.80;;;;;;;29.12;25.04;99230.78;1782523;79;28101;-49
2023/04/24 09:49:29;;;;;;;10.65;7.45;;;;;;;29.01;24.91;99235.42;1779721;80;25514;-50
2023/04/24 09:52:10;;;;;;;14.58;7.53;;;;;;;28.87;24.43;99244.34;1771733;80;25607;-50
2023/04/24 09:54:40;;;;;;;9.70;7.40;;;;;;;28.60;24.76;99232.52;1773407;80;25560;-48
2023/04/24 09:57:10;;;;;;;14.28;7.97;;;;;;;28.27;24.73;99239.30;1763660;80;25299;-49
2023/04/24 09:59:45;;;;;;;13.78;7.65;;;;;;;28.10;24.88;99233.20;1773625;80;27654;-52
2023/04/24 10:02:20;;;;;;;11.18;6.92;;;;;;;27.72;25.04;99231.40;1772317;80;25846;-49
2023/04/24 10:04:56;;;;;;;10.50;6.97;;;;;;;27.52;25.48;99232.33;1772986;80;25425;-49
2023/04/24 10:07:26;;;;;;;11.55;7.45;;;;;;;27.25;25.70;99222.50;1771700;80;25395;-47
2023/04/24 10:09:54;;;;;;;11.38;7.35;;;;;;;26.88;25.86;99218.61;1773154;79;25446;-47
2023/04/24 10:12:24;;;;;;;11.08;7.55;;;;;;;26.62;26.53;99225.54;1772344;80;27495;-48
2023/04/24 10:14:53;;;;;;;8.65;7.15;;;;;;;26.63;26.49;99222.98;1771744;80;25464;-52
2023/04/24 10:17:23;;;;;;;9.03;7.65;;;;;;;26.80;26.72;99222.21;1772220;80;25503;-48
2023/04/24 10:19:51;;;;;;;8.25;7.33;;;;;;;27.07;26.21;99220.95;1763080;80;25459;-49
2023/04/24 10:22:20;;;;;;;13.93;7.70;;;;;;;27.31;26.14;99228.28;1773360;79;25536;-48
2023/04/24 10:24:49;;;;;;;10.20;7.15;;;;;;;27.48;25.42;99231.06;1771816;80;32513;-49
2023/04/24 10:27:19;;;;;;;10.50;7.42;;;;;;;27.27;26.01;99210.95;1772739;80;25393;-48
2023/04/24 10:29:47;;;;;;;10.10;7.22;;;;;;;27.77;26.33;99213.38;1761218;80;25484;-49
2023/04/24 10:32:14;;;;;;;10.15;7.72;;;;;;;28.11;25.70;99208.95;1771503;80;25453;-49
2023/04/24 10:34:42;;;;;;;8.18;7.37;;;;;;;28.13;25.48;99200.95;1773270;79;25430;-48
2023/04/24 10:37:10;;;;;;;11.75;7.37;;;;;;;27.75;25.13;99204.11;1771930;80;28298;-48
2023/04/24 10:39:40;;;;;;;15.00;8.13;;;;;;;27.13;25.61;99201.13;1773303;79;32572;-48
2023/04/24 10:42:18;;;;;;;10.58;8.05;;;;;;;26.65;26.25;99196.34;1773233;80;25592;-50
2023/04/24 10:44:49;;;;;;;10.03;7.25;;;;;;;26.71;26.92;99199.94;1771667;80;25582;-50
2023/04/24 10:47:15;;;;;;;8.13;7.30;;;;;;;26.87;26.20;99184.55;1773216;80;25370;-50
2023/04/24 10:49:44;;;;;;;10.15;7.67;;;;;;;26.47;26.40;99191.32;1773651;80;27572;-50
2023/04/24 10:52:11;;;;;;;9.95;7.40;;;;;;;26.03;26.38;99183.39;1776243;80;25762;-50
2023/04/24 10:54:47;;;;;;;8.85;7.95;;;;;;;25.71;26.80;99185.86;1771932;80;25545;-45
2023/04/24 10:57:22;;;;;;;12.60;8.18;;;;;;;25.48;27.23;99185.50;1774314;80;25713;-51
2023/04/24 11:00:12;;;;;;;12.10;8.38;;;;;;;25.25;28.60;99180.97;1770034;79;25441;-52
2023/04/24 11:02:48;;;;;;;12.55;7.67;;;;;;;25.23;29.63;99185.37;1771382;81;27881;-51
2023/04/24 11:05:17;;;;;;;8.88;7.83;;;;;;;25.38;30.41;99169.97;1774134;80;26144;-52
2023/04/24 11:08:18;;;;;;;10.18;7.35;;;;;;;25.59;29.13;99178.30;1772083;80;25473;-51
2023/04/24 11:10:50;;;;;;;12.05;7.58;;;;;;;25.55;29.31;99174.84;1771987;80;25380;-50
2023/04/24 11:13:23;;;;;;;14.10;7.50;;;;;;;25.22;29.45;99178.30;1773392;80;25544;-50
2023/04/24 11:16:23;;;;;;;11.83;7.50;;;;;;;24.84;29.49;99176.87;1772557;79;27460;-50
2023/04/24 11:19:18;;;;;;;9.83;7.80;;;;;;;24.35;30.14;99169.34;1772746;80;25614;-49
2023/04/24 11:22:10;;;;;;;8.65;7.50;;;;;;;23.87;30.12;99169.39;1772823;80;25571;-50
2023/04/24 11:24:44;;;;;;;9.20;6.40;;;;;;;23.69;30.89;99171.13;1772386;80;25378;-48
2023/04/24 11:27:21;;;;;;;8.75;7.08;;;;;;;23.92;29.92;99164.74;1775299;79;25532;-51
2023/04/24 11:29:59;;;;;;;9.58;7.37;;;;;;;24.03;30.36;99165.30;1772198;80;27556;-49
2023/04/24 11:32:35;;;;;;;11.00;7.87;;;;;;;24.26;30.26;99166.98;1771761;80;25639;-49